• Join FlightAware (Why Join?)
  • Login
  • US Flag GB Flag 
11:09 EDT


 

Airport Tracker/Info


-or-


 

Live Flight TrackerFlight Track Log ✈ EJM949 ✈ 05-Oct-2013 ✈ KASE - KSFO

Flight Track Log - Related Links

Times and Time Zones

All times are in EDT time to prevent confusion due to time zone crossing. See the EJM949 flight status page for this flight to view local times or setup timezone preferences in your user account.

Time Position Orientation Groundspeed Altitude Reporting Facility
EDT Latitude Longitude Course Direction KTS MPH feet Rate Location/Type
17:17 39.2836 -106.9144 278° West 260 299 43,000  Level Denver Center
17:18 39.2939 -107.0133 278° West 279 321 43,000  Level Denver Center
17:19 39.3539 -107.1100 309° West 330 380 43,000 -10,980 Level Denver Center
17:20 39.3975 -107.2586 291° West 413 475 20,600 -10,740 Descending Denver Center
17:21 39.3494 -107.4325 250° West 448 516 21,000 540 Climbing Denver Center
17:22 39.3192 -107.5781 255° West 439 505 21,800 1,440 Climbing Denver Center
17:23 39.2875 -107.7275 255° West 443 510 24,000 2,340 Climbing Denver Center
17:24 39.2472 -107.9092 254° West 464 534 26,600 2,400 Climbing Denver Center
17:25 39.2133 -108.0708 255° West 484 557 29,000 2,220 Climbing Denver Center
17:26 39.1775 -108.2389 255° West 503 579 31,200 2,160 Climbing Denver Center
17:27 39.1361 -108.4403 255° West 520 598 33,500 2,100 Climbing Denver Center
17:28 39.0972 -108.6136 254° West 522 601 35,600 2,220 Climbing Denver Center
17:29 39.0561 -108.8144 255° West 516 594 38,100 2,220 Climbing Denver Center
17:30 39.0322 -108.9806 260° West 495 570 40,200 2,040 Climbing Denver Center
17:31 39.0075 -109.1353 258° West 466 536 42,300 1,320 Climbing Denver Center
17:32 38.9797 -109.3181 259° West 465 535 43,000 300 Climbing Denver Center
17:33 38.9550 -109.4792 259° West 477 549 43,000  Level Denver Center
17:34 38.9272 -109.6639 259° West 471 542 43,000  Level Denver Center
17:35 38.9031 -109.8197 259° West 466 536 43,000  Level Denver Center
17:36 38.8794 -109.9750 259° West 464 534 43,000  Level Denver Center
17:37 38.8514 -110.1597 259° West 473 544 43,000  Level Denver Center
17:38 38.8253 -110.3181 258° West 474 545 43,000  Level Denver Center
17:39 38.7958 -110.5017 258° West 471 542 43,000  Level Denver Center
17:40 38.7711 -110.6614 259° West 477 549 43,000  Level Denver Center
17:42 38.7331 -110.8967 258° West 469 540 43,000  Level Salt Lake Center
17:43 38.7058 -111.0639 258° West 471 542 43,000  Level Salt Lake Center
17:44 38.6783 -111.2247 258° West 467 537 43,000  Level Salt Lake Center
17:45 38.6519 -111.3867 258° West 466 536 43,000  Level Salt Lake Center
17:46 38.6236 -111.5503 258° West 471 542 43,000  Level Salt Lake Center
17:47 38.5942 -111.7147 257° West 476 548 43,000  Level Salt Lake Center
17:48 38.5656 -111.8789 257° West 475 547 43,000  Level Salt Lake Center
17:49 38.5381 -112.0425 258° West 473 544 43,000  Level Salt Lake Center
17:50 38.5092 -112.2056 257° West 474 545 43,000  Level Salt Lake Center
17:51 38.4736 -112.3994 257° West 471 542 43,000  Level Salt Lake Center
17:52 38.4450 -112.5603 257° West 469 540 43,000  Level Salt Lake Center
17:53 38.4161 -112.7175 257° West 461 531 43,000  Level Salt Lake Center
17:54 38.3867 -112.8750 257° West 460 529 43,000  Level Salt Lake Center
17:55 38.3592 -113.0344 258° West 462 532 43,000  Level Salt Lake Center
17:56 38.3464 -113.1986 264° West 467 537 43,000  Level Salt Lake Center
17:57 38.3383 -113.3617 266° West 467 537 43,000  Level Salt Lake Center
17:58 38.3272 -113.5539 266° West 460 529 43,000  Level Salt Lake Center
17:59 38.3183 -113.7117 266° West 453 521 43,000  Level Salt Lake Center
18:00 38.3078 -113.8697 265° West 449 517 43,000  Level Salt Lake Center
18:01 38.2983 -114.0317 266° West 458 527 43,000  Level Salt Lake Center
18:02 38.2881 -114.1958 265° West 466 536 43,000  Level Salt Lake Center
18:03 38.2769 -114.3597 265° West 467 537 43,000  Level Salt Lake Center
18:04 38.2661 -114.5200 265° West 460 529 43,000  Level Salt Lake Center
18:05 38.2561 -114.6817 266° West 460 529 43,000  Level Salt Lake Center
18:06 38.2422 -114.8758 265° West 461 531 43,000  Level Salt Lake Center
18:07 38.2306 -115.0364 265° West 458 527 43,000  Level Salt Lake Center
18:08 38.2194 -115.1953 265° West 454 522 43,000  Level Salt Lake Center
18:09 38.2064 -115.3594 264° West 458 527 43,000  Level Salt Lake Center
18:10 38.1944 -115.5183 265° West 454 522 43,000  Level Salt Lake Center
18:11 38.1817 -115.6764 264° West 450 518 43,000  Level Salt Lake Center
18:13 38.1708 -115.8319 265° West 445 512 43,000  Level Salt Lake Center
18:14 38.1583 -115.9861 264° West 442 509 43,000  Level Salt Lake Center
18:15 38.1450 -116.1417 264° West 442 509 43,000  Level Salt Lake Center
18:16 38.1331 -116.2967 264° West 442 509 43,000  Level Salt Lake Center
18:17 38.1206 -116.4511 264° West 439 505 43,000  Level Salt Lake Center
18:18 38.1042 -116.6394 264° West 447 514 43,000  Level Salt Lake Center
18:19 38.0908 -116.7978 264° West 449 517 43,000  Level Salt Lake Center
18:19 38.0803 -116.9236 264° West 447 514 43,000  Level Oakland Center
18:20 38.0656 -117.0828 263° West 448 516 43,000  Level Oakland Center
18:22 38.0506 -117.2464 263° West 450 518 43,000  Level Oakland Center
18:23 38.0361 -117.4086 264° West 452 520 43,000  Level Oakland Center
18:24 38.0222 -117.5658 264° West 449 517 43,000  Level Oakland Center
18:25 38.0081 -117.7222 263° West 447 514 43,000  Level Oakland Center
18:26 37.9919 -117.8783 263° West 445 512 43,000  Level Oakland Center
18:27 37.9756 -118.0336 262° West 445 512 43,000  Level Oakland Center
18:28 37.9589 -118.1889 262° West 445 512 43,000  Level Oakland Center
18:29 37.9419 -118.3447 262° West 445 512 43,000  Level Oakland Center
18:30 37.9256 -118.4994 262° West 443 510 43,000  Level Oakland Center
18:31 37.9075 -118.6536 262° West 442 509 43,000  Level Oakland Center
18:32 37.8906 -118.8092 262° West 445 512 43,000  Level Oakland Center
18:33 37.8728 -118.9639 262° West 444 511 43,000  Level Oakland Center
18:34 37.8567 -119.1383 263° West 441 507 43,000  Level Oakland Center
18:35 37.8342 -119.2953 260° West 448 516 43,000  Level Oakland Center
18:36 37.8172 -119.4481 262° West 442 509 43,000 -660 Level Oakland Center
18:37 37.7986 -119.6044 261° West 447 514 41,700 -1,320 Descending Oakland Center
18:38 37.7789 -119.7619 261° West 450 518 40,400 -1,800 Descending Oakland Center
18:39 37.7603 -119.9186 262° West 452 520 38,100 -2,400 Descending Oakland Center
18:40 37.7400 -120.0808 261° West 463 533 35,500 -2,580 Descending Oakland Center
18:41 37.7192 -120.2447 261° West 470 541 32,900 -2,580 Descending Oakland Center
18:42 37.6981 -120.4128 261° West 480 552 30,300 -2,580 Descending Oakland Center
18:43 37.6772 -120.5744 261° West 470 541 27,700 -2,520 Descending Oakland Center
18:44 37.6575 -120.7289 261° West 453 521 25,200 -2,640 Descending Oakland Center
18:45 37.6336 -120.9094 261° West 438 504 22,400 -2,580 Descending Oakland Center
18:46 37.6167 -121.0567 262° West 428 493 20,000 -2,160 Descending Oakland Center
18:47 37.6033 -121.1744 262° West 413 475 18,100 -2,160 Descending Oakland Center
18:48 37.5844 -121.3369 262° West 392 451 15,600 -2,220 Descending Oakland Center
18:49 37.5706 -121.4628 262° West 368 423 13,600 -1,920 Descending Oakland Center
18:50 37.5500 -121.6000 259° West 322 371 11,300 -1,860 Descending Northern Cal TRACON
18:51 37.5333 -121.7167 260° West 306 352 9,400 -1,680 Descending Northern Cal TRACON
18:52 37.5167 -121.8167 258° West 298 343 8,000 -720 Descending Northern Cal TRACON
18:53 37.5000 -121.9167 258° West 293 337 8,000 -420 Level Northern Cal TRACON
18:54 37.5000 -122.0167 270° West 287 330 7,200 -1,200 Descending Northern Cal TRACON
18:55 37.5333 -122.1000 297° West 259 298 5,700 -1,140 Descending Northern Cal TRACON
18:56 37.5481 -122.1478 291° West 234 269 5,100 -1,440 Descending Oakland Center
18:57 37.5672 -122.2108 291° West 201 231 3,000 -1,800 Descending Oakland Center
18:58 37.5856 -122.2706 291° West 192 221 1,500 -1,140 Descending Oakland Center
18:59 37.5981 -122.3214 287° West 173 199 700 -840 Descending Oakland Center
19:02 37.6167 -122.3667 322° Northwest  Level FlightAware Approximate